createdAt,value
2018-02-22T00:04:52.373Z,21.95
2018-02-22T00:10:02.697Z,25.12
2018-02-22T00:12:33.867Z,21.60
2018-02-22T00:15:12.391Z,20.90
2018-02-22T00:17:45.264Z,23.10
2018-02-22T00:20:15.055Z,23.70
2018-02-22T00:22:49.306Z,23.48
2018-02-22T00:25:19.614Z,22.27
2018-02-22T00:30:32.888Z,21.50
2018-02-22T00:33:06.459Z,20.58
2018-02-22T00:35:41.182Z,24.35
2018-02-22T00:38:11.012Z,23.25
2018-02-22T00:40:47.333Z,23.38
2018-02-22T00:43:17.972Z,19.37
2018-02-22T00:45:54.546Z,23.48
2018-02-22T00:48:30.036Z,23.05
2018-02-22T00:50:59.596Z,25.10
2018-02-22T00:53:29.795Z,25.02
2018-02-22T00:58:56.653Z,23.65
2018-02-22T01:12:08.176Z,22.90
2018-02-22T01:14:40.955Z,22.95
2018-02-22T01:17:21.408Z,22.33
2018-02-22T01:19:56.512Z,24.37
2018-02-22T01:22:38.567Z,23.77
2018-02-22T01:27:53.894Z,24.45
2018-02-22T01:30:27.517Z,23.83
2018-02-22T01:49:53.245Z,20.77
2018-02-22T01:55:02.855Z,20.20
2018-02-22T01:57:37.724Z,19.58
2018-02-22T02:00:13.267Z,20.37
2018-02-22T04:30:14.563Z,16.80
2018-02-22T04:33:10.278Z,16.25
2018-02-22T04:45:01.560Z,19.08
2018-02-22T05:02:00.562Z,17.33
2018-02-22T05:07:36.932Z,15.25
2018-02-22T05:10:17.075Z,15.65
2018-02-22T05:15:48.372Z,15.52
2018-02-22T05:20:50.840Z,18.45
2018-02-22T05:23:19.525Z,18.42
2018-02-22T05:25:51.301Z,18.67
2018-02-22T05:28:30.605Z,16.98
2018-02-22T05:30:59.477Z,16.95
2018-02-22T05:33:27.928Z,19.98
2018-02-22T05:35:56.796Z,14.65
2018-02-22T05:38:26.362Z,18.50
2018-02-22T05:40:54.534Z,19.23
2018-02-22T05:43:22.743Z,18.90
2018-02-22T05:45:51.872Z,19.45
2018-02-22T05:48:21.005Z,22.52
2018-02-22T05:50:49.256Z,18.90
2018-02-22T05:53:20.957Z,19.83
2018-02-22T05:55:56.891Z,20.23
2018-02-22T06:01:10.325Z,19.35
2018-02-22T06:03:39.518Z,20.20
2018-02-22T06:06:08.580Z,16.95
2018-02-22T06:08:37.025Z,20.17
2018-02-22T06:11:06.348Z,18.90
2018-02-22T06:13:36.082Z,22.13
2018-02-22T06:16:05.886Z,21.58
2018-02-22T06:18:34.163Z,20.27
2018-02-22T06:21:03.922Z,24.10
2018-02-22T06:23:33.927Z,19.25
2018-02-22T06:26:03.977Z,20.52
2018-02-22T06:28:32.173Z,23.25
2018-02-22T06:31:00.918Z,22.02
2018-02-22T06:33:29.128Z,21.40
2018-02-22T06:36:03.734Z,19.85
2018-02-22T06:38:33.377Z,20.08
2018-02-22T06:41:01.657Z,21.95
2018-02-22T06:43:29.845Z,23.92
2018-02-22T06:46:01.074Z,17.85
2018-02-22T06:48:30.768Z,20.27
2018-02-22T06:51:00.017Z,19.05
2018-02-22T06:53:28.183Z,23.65
2018-02-22T06:55:56.435Z,20.80
2018-02-22T06:58:25.012Z,19.35
2018-02-22T07:00:53.262Z,20.23
2018-02-22T07:03:22.214Z,22.80
2018-02-22T07:05:50.994Z,21.87
2018-02-22T07:08:19.210Z,21.12
2018-02-22T07:10:48.156Z,21.27
2018-02-22T07:13:18.218Z,18.95
2018-02-22T07:15:52.860Z,21.52
2018-02-22T07:18:22.081Z,19.12
2018-02-22T07:20:56.682Z,23.10
2018-02-22T07:23:25.532Z,18.40
2018-02-22T07:25:54.929Z,22.17
2018-02-22T07:28:23.947Z,24.67
2018-02-22T07:30:52.122Z,22.77
2018-02-22T07:33:20.330Z,21.67
2018-02-22T07:35:49.529Z,21.25
2018-02-22T07:38:18.678Z,24.08
2018-02-22T07:40:47.706Z,20.20
2018-02-22T07:43:17.397Z,20.30
2018-02-22T07:45:47.253Z,21.60
2018-02-22T07:48:15.445Z,20.05
2018-02-22T07:50:44.323Z,22.17
2018-02-22T07:53:12.996Z,24.05
2018-02-22T07:55:42.333Z,22.17
2018-02-22T07:58:10.512Z,24.40
2018-02-22T08:00:38.677Z,23.65
2018-02-22T08:03:07.602Z,13.73
2018-02-22T08:05:36.729Z,22.65
2018-02-22T08:08:06.221Z,19.55
2018-02-22T08:10:35.167Z,19.80
2018-02-22T08:13:04.243Z,22.65
2018-02-22T08:15:32.881Z,20.67
2018-02-22T08:18:01.057Z,23.30
2018-02-22T08:20:30.001Z,21.70
2018-02-22T08:22:58.159Z,22.00
2018-02-22T08:25:27.361Z,22.90
2018-02-22T08:27:56.716Z,25.05
2018-02-22T08:30:25.682Z,20.20
2018-02-22T08:32:54.691Z,22.80
2018-02-22T08:35:22.925Z,24.45
2018-02-22T08:37:51.099Z,21.40
2018-02-22T08:40:19.284Z,19.35
2018-02-22T08:42:47.520Z,21.65
2018-02-22T08:45:15.882Z,21.75
2018-02-22T08:47:44.835Z,17.60
2018-02-22T08:50:13.338Z,22.33
2018-02-22T08:52:41.525Z,22.05
2018-02-22T08:55:09.746Z,24.20
2018-02-22T08:57:41.911Z,18.85
2018-02-22T09:00:10.832Z,18.33
2018-02-22T09:02:39.011Z,23.35
2018-02-22T09:05:07.759Z,20.08
2018-02-22T09:07:37.722Z,21.87
2018-02-22T09:10:06.347Z,21.65
2018-02-22T09:12:34.564Z,19.55
2018-02-22T09:15:03.728Z,21.20
2018-02-22T09:17:32.869Z,21.20
2018-02-22T09:20:01.089Z,20.92
2018-02-22T09:22:30.039Z,21.73
2018-02-22T09:24:58.294Z,20.60
2018-02-22T09:27:26.452Z,21.75
2018-02-22T09:29:55.204Z,21.92
2018-02-22T09:32:25.589Z,21.65
2018-02-22T09:34:56.566Z,20.05
2018-02-22T09:37:25.920Z,21.62
2018-02-22T09:39:55.565Z,20.15
2018-02-22T09:42:26.484Z,22.52
2018-02-22T09:44:54.777Z,18.73
2018-02-22T09:47:27.374Z,18.90
2018-02-22T09:49:55.556Z,20.23
2018-02-22T09:52:23.719Z,21.73
2018-02-22T09:54:51.942Z,19.30
2018-02-22T09:57:22.861Z,19.05
2018-02-22T09:59:52.364Z,18.20
2018-02-22T10:02:24.709Z,16.65
2018-02-22T10:04:53.914Z,18.60
2018-02-22T10:07:23.510Z,17.92
2018-02-22T10:09:52.766Z,18.27
2018-02-22T10:12:22.526Z,15.48
2018-02-22T10:14:52.672Z,16.52
2018-02-22T10:17:21.206Z,16.77
2018-02-22T10:19:49.389Z,19.05
2018-02-22T10:22:17.566Z,16.58
2018-02-22T10:24:45.791Z,19.55
2018-02-22T10:27:13.952Z,16.30
2018-02-22T10:29:42.131Z,16.87
2018-02-22T10:32:10.290Z,16.45
2018-02-22T10:34:38.478Z,18.50
2018-02-22T10:37:06.652Z,20.48
2018-02-22T10:39:34.804Z,18.60
2018-02-22T10:42:02.955Z,17.50
2018-02-22T10:44:31.906Z,17.00
2018-02-22T10:47:00.088Z,14.50
2018-02-22T10:49:28.314Z,15.98
2018-02-22T10:51:56.465Z,16.23
2018-02-22T10:54:24.642Z,17.23
2018-02-22T10:56:52.817Z,17.40
2018-02-22T10:59:20.969Z,15.10
2018-02-22T11:01:54.711Z,14.85
2018-02-22T11:04:23.642Z,16.85
2018-02-22T11:06:51.828Z,15.85
2018-02-22T11:09:19.983Z,17.37
2018-02-22T11:11:48.170Z,15.82
2018-02-22T11:14:16.349Z,16.17
2018-02-22T11:16:44.506Z,17.98
2018-02-22T11:19:12.674Z,16.25
2018-02-22T11:21:40.846Z,16.15
2018-02-22T11:24:09.020Z,15.70
2018-02-22T11:26:37.165Z,17.58
2018-02-22T11:29:06.106Z,16.02
2018-02-22T11:31:34.367Z,17.98
2018-02-22T11:34:02.537Z,16.50
2018-02-22T11:36:32.779Z,16.45
2018-02-22T11:39:00.958Z,14.57
2018-02-22T11:41:30.116Z,15.25
2018-02-22T11:43:58.886Z,17.25
2018-02-22T11:46:27.046Z,15.73
2018-02-22T11:48:55.217Z,16.42
2018-02-22T11:51:23.395Z,15.98
2018-02-22T11:53:51.549Z,15.95
2018-02-22T11:56:21.379Z,17.92
2018-02-22T11:58:49.580Z,18.02
2018-02-22T12:01:18.518Z,16.20
2018-02-22T12:03:48.130Z,16.92
2018-02-22T12:06:16.377Z,14.87
2018-02-22T12:08:44.538Z,15.10
2018-02-22T12:11:13.473Z,17.52
2018-02-22T12:13:41.685Z,13.40
2018-02-22T12:16:09.905Z,15.68
2018-02-22T12:18:38.525Z,15.15
2018-02-22T12:21:07.688Z,17.67
2018-02-22T12:23:35.856Z,13.20
2018-02-22T12:26:04.088Z,13.68
2018-02-22T12:28:32.254Z,17.20
2018-02-22T12:31:00.467Z,15.77
2018-02-22T12:33:28.617Z,15.48
2018-02-22T12:36:04.775Z,15.30
2018-02-22T12:38:33.241Z,16.02
2018-02-22T12:41:01.958Z,13.07
2018-02-22T12:43:30.180Z,14.43
2018-02-22T12:45:58.450Z,14.32
2018-02-22T12:48:26.622Z,14.50
2018-02-22T12:50:54.806Z,14.95
2018-02-22T12:53:22.977Z,16.25
2018-02-22T12:55:52.150Z,13.52
2018-02-22T12:58:21.277Z,13.05
2018-02-22T13:00:50.898Z,16.27
2018-02-22T13:03:20.809Z,16.80
2018-02-22T13:05:49.965Z,11.82
2018-02-22T13:08:18.135Z,15.00
2018-02-22T13:10:46.395Z,14.87
2018-02-22T13:13:15.324Z,14.20
2018-02-22T13:15:43.724Z,11.98
2018-02-22T13:18:11.934Z,12.70
2018-02-22T13:20:41.174Z,13.10
2018-02-22T13:23:09.404Z,13.55
2018-02-22T13:25:37.641Z,13.32
2018-02-22T13:28:05.805Z,11.88
2018-02-22T13:30:33.969Z,11.77
2018-02-22T13:33:13.993Z,12.75
2018-02-22T13:35:46.843Z,11.10
2018-02-22T13:38:28.490Z,11.55
2018-02-22T13:40:56.767Z,13.43
2018-02-22T13:43:25.862Z,12.68
2018-02-22T13:45:54.145Z,12.85
2018-02-22T13:48:22.311Z,12.95
2018-02-22T13:51:02.382Z,13.13
2018-02-22T13:53:30.540Z,10.23
2018-02-22T13:56:00.236Z,11.80
2018-02-22T13:58:28.407Z,11.18
2018-02-22T14:01:08.570Z,12.37
2018-02-22T14:03:37.625Z,10.73
2018-02-22T14:06:09.633Z,11.82
2018-02-22T14:08:44.663Z,13.00
2018-02-22T14:11:13.009Z,12.40
2018-02-22T14:13:41.956Z,13.75
2018-02-22T14:16:11.073Z,13.02
2018-02-22T14:18:40.038Z,13.62
2018-02-22T14:21:08.196Z,12.43
2018-02-22T14:23:36.377Z,13.18
2018-02-22T14:26:05.387Z,13.27
2018-02-22T14:28:34.969Z,12.23
2018-02-22T14:31:03.145Z,12.77
2018-02-22T14:33:31.304Z,15.50
2018-02-22T14:36:02.633Z,14.85
2018-02-22T14:38:30.793Z,13.80
2018-02-22T14:40:59.028Z,14.15
2018-02-22T14:43:27.189Z,12.50
2018-02-22T14:45:55.420Z,14.68
2018-02-22T14:48:24.630Z,13.68
2018-02-22T14:50:52.814Z,13.43
2018-02-22T14:53:21.056Z,12.68
2018-02-22T14:55:49.335Z,13.75
2018-02-22T14:58:17.559Z,13.57
2018-02-22T15:00:52.030Z,14.20
2018-02-22T15:03:20.212Z,13.68
2018-02-22T15:05:48.401Z,13.90
2018-02-22T15:08:19.409Z,16.05
2018-02-22T15:10:48.999Z,13.15
2018-02-22T15:13:17.246Z,12.90
2018-02-22T15:15:45.547Z,14.05
2018-02-22T15:18:13.840Z,14.85
2018-02-22T15:20:42.105Z,14.90
2018-02-22T15:23:10.265Z,13.62
2018-02-22T15:25:39.479Z,13.18
2018-02-22T15:28:07.636Z,11.18
2018-02-22T15:30:35.853Z,15.55
2018-02-22T15:33:04.347Z,14.90
2018-02-22T15:35:32.574Z,13.18
2018-02-22T15:38:00.801Z,13.62
2018-02-22T15:40:28.959Z,12.93
2018-02-22T15:42:57.151Z,10.40
2018-02-22T15:45:29.825Z,13.77
2018-02-22T15:47:58.168Z,15.32
2018-02-22T15:50:26.988Z,11.23
2018-02-22T15:52:55.159Z,13.25
2018-02-22T15:55:26.562Z,12.60
2018-02-22T15:57:54.744Z,13.73
2018-02-22T16:00:26.772Z,13.02
2018-02-22T16:02:55.714Z,13.27
2018-02-22T16:05:24.711Z,13.75
2018-02-22T16:07:53.816Z,10.73
2018-02-22T16:10:21.980Z,12.98
2018-02-22T16:12:50.138Z,12.50
2018-02-22T16:15:20.219Z,13.52
2018-02-22T16:17:48.378Z,11.55
2018-02-22T16:20:16.559Z,11.90
2018-02-22T16:22:44.716Z,10.82
2018-02-22T16:25:14.891Z,14.63
2018-02-22T16:27:43.041Z,12.98
2018-02-22T16:30:11.205Z,10.90
2018-02-22T16:32:39.387Z,13.88
2018-02-22T16:35:08.222Z,12.88
2018-02-22T16:37:37.306Z,11.32
2018-02-22T16:40:05.494Z,12.70
2018-02-22T16:42:33.666Z,11.52
2018-02-22T16:45:01.924Z,11.15
2018-02-22T16:47:30.125Z,12.45
2018-02-22T16:49:58.287Z,9.70
2018-02-22T16:52:26.449Z,10.77
2018-02-22T16:54:55.663Z,10.85
2018-02-22T16:57:23.819Z,12.48
2018-02-22T16:59:51.967Z,9.38
2018-02-22T17:02:21.158Z,10.35
2018-02-22T17:04:50.082Z,10.38
2018-02-22T17:07:18.254Z,11.77
2018-02-22T17:09:46.694Z,10.77
2018-02-22T17:12:16.153Z,12.63
2018-02-22T17:14:45.338Z,12.25
2018-02-22T17:17:16.919Z,10.50
2018-02-22T17:19:45.798Z,12.25
2018-02-22T17:22:13.953Z,10.88
2018-02-22T17:24:43.205Z,10.90
2018-02-22T17:27:16.986Z,11.95
2018-02-22T17:29:51.205Z,11.48
2018-02-22T17:32:19.935Z,11.43
2018-02-22T17:34:48.134Z,10.55
2018-02-22T17:37:17.218Z,10.60
2018-02-22T17:40:00.268Z,11.38
2018-02-22T17:42:35.684Z,10.95
2018-02-22T17:45:05.187Z,13.30
2018-02-22T17:47:38.389Z,12.35
2018-02-22T17:50:06.558Z,12.73
2018-02-22T17:52:36.150Z,24.20
2018-02-22T17:55:06.438Z,15.27
2018-02-22T17:57:34.635Z,23.02
2018-02-22T18:00:03.094Z,19.20
2018-02-22T18:02:31.262Z,13.38
2018-02-22T18:05:01.105Z,14.75
2018-02-22T18:07:32.515Z,14.87
2018-02-22T18:10:03.553Z,16.02
2018-02-22T18:12:31.749Z,18.95
2018-02-22T18:15:01.969Z,20.77
2018-02-22T18:17:30.723Z,22.35
2018-02-22T18:20:00.665Z,18.52
2018-02-22T18:22:28.856Z,15.20
2018-02-22T18:24:57.088Z,11.35
2018-02-22T18:27:25.253Z,13.70
2018-02-22T18:29:54.190Z,12.50
2018-02-22T18:32:24.807Z,12.55
2018-02-22T18:34:53.054Z,12.68
2018-02-22T18:37:26.959Z,10.80
2018-02-22T18:39:55.876Z,11.57
2018-02-22T18:42:24.691Z,11.90
2018-02-22T18:44:58.561Z,11.85
2018-02-22T18:47:29.924Z,12.40
2018-02-22T18:49:58.085Z,11.25
2018-02-22T18:52:27.182Z,11.55
2018-02-22T18:54:55.471Z,11.70
2018-02-22T18:57:23.645Z,10.85
2018-02-22T18:59:51.822Z,10.95
2018-02-22T19:02:21.590Z,10.95
2018-02-22T19:04:50.617Z,10.45
2018-02-22T19:07:19.573Z,11.15
2018-02-22T19:09:47.738Z,12.05
2018-02-22T19:12:15.901Z,12.23
2018-02-22T19:14:44.976Z,10.70
2018-02-22T19:17:13.489Z,12.85
2018-02-22T19:19:41.660Z,11.27
2018-02-22T19:22:09.825Z,12.25
2018-02-22T19:24:38.036Z,10.88
2018-02-22T19:27:06.192Z,11.05
2018-02-22T19:29:35.138Z,9.45
2018-02-22T19:32:03.368Z,9.93
2018-02-22T19:34:32.394Z,8.27
2018-02-22T19:37:00.569Z,9.07
2018-02-22T19:39:28.740Z,9.85
2018-02-22T19:41:56.941Z,9.48
2018-02-22T19:44:25.217Z,9.25
2018-02-22T19:46:54.023Z,9.25
2018-02-22T19:49:22.233Z,8.82
2018-02-22T19:51:50.373Z,9.88
2018-02-22T19:54:18.585Z,9.65
2018-02-22T19:56:46.760Z,9.50
2018-02-22T19:59:15.691Z,9.20
2018-02-22T20:01:43.854Z,9.73
2018-02-22T20:04:12.050Z,10.43
2018-02-22T20:06:40.217Z,11.45
2018-02-22T20:09:08.372Z,10.98
2018-02-22T20:11:36.540Z,10.13
2018-02-22T20:14:04.698Z,8.95
2018-02-22T20:16:32.863Z,9.40
2018-02-22T20:19:02.566Z,11.00
2018-02-22T20:21:31.525Z,10.15
2018-02-22T20:23:59.762Z,9.63
2018-02-22T20:26:28.028Z,9.02
2018-02-22T20:28:56.512Z,10.27
2018-02-22T20:31:24.665Z,11.20
2018-02-22T20:33:53.621Z,10.73
2018-02-22T20:36:21.826Z,9.40
2018-02-22T20:38:50.769Z,13.18
2018-02-22T20:41:18.932Z,18.23
2018-02-22T20:43:47.089Z,39.25
2018-02-22T20:46:15.282Z,18.10
2018-02-22T20:48:43.462Z,13.20
2018-02-22T20:51:11.873Z,12.45
2018-02-22T20:53:40.671Z,11.48
2018-02-22T20:56:15.431Z,13.23
2018-02-22T20:58:44.245Z,11.15
2018-02-22T21:01:12.528Z,9.23
2018-02-22T21:03:44.598Z,11.23
2018-02-22T21:06:16.230Z,12.37
2018-02-22T21:08:46.516Z,10.25
2018-02-22T21:11:18.288Z,11.73
2018-02-22T21:13:47.182Z,10.10
2018-02-22T21:16:15.760Z,12.05
2018-02-22T21:18:45.033Z,9.60
2018-02-22T21:21:13.297Z,11.45
2018-02-22T21:23:41.682Z,11.88
2018-02-22T21:26:11.041Z,11.63
2018-02-22T21:28:40.310Z,12.05
2018-02-22T21:31:08.510Z,11.00
2018-02-22T21:36:12.140Z,12.75
2018-02-22T21:38:41.978Z,11.73
2018-02-22T21:41:12.219Z,10.27
2018-02-22T21:43:40.414Z,12.15
2018-02-22T21:46:12.626Z,13.70
2018-02-22T21:48:41.653Z,11.38
2018-02-22T21:51:10.784Z,10.85
2018-02-22T21:53:39.260Z,10.82
2018-02-22T21:56:08.979Z,13.70
2018-02-22T21:58:37.946Z,13.48
2018-02-22T22:01:06.148Z,11.10
2018-02-22T22:03:34.318Z,10.00
2018-02-22T22:06:04.979Z,10.30
2018-02-22T22:08:33.775Z,11.57
2018-02-22T22:11:03.348Z,11.32
2018-02-22T22:13:32.311Z,12.27
2018-02-22T22:16:01.352Z,9.27
2018-02-22T22:18:30.531Z,11.60
2018-02-22T22:20:59.533Z,11.85
2018-02-22T22:23:27.741Z,10.48
2018-02-22T22:25:59.822Z,9.82
2018-02-22T22:28:28.063Z,12.30
2018-02-22T22:30:56.296Z,12.07
2018-02-22T22:33:24.971Z,12.40
2018-02-22T22:35:53.882Z,11.32
2018-02-22T22:38:22.810Z,9.20
2018-02-22T22:40:51.089Z,8.82
2018-02-22T22:43:20.206Z,9.10
2018-02-22T22:45:48.476Z,12.37
2018-02-22T22:48:16.635Z,10.52
2018-02-22T22:50:44.805Z,11.23
2018-02-22T22:53:12.988Z,9.82
2018-02-22T22:55:41.914Z,9.20
2018-02-22T22:58:10.890Z,11.30
2018-02-22T23:00:39.961Z,11.80
2018-02-22T23:03:09.912Z,10.00
2018-02-22T23:05:38.173Z,9.90
2018-02-22T23:08:08.264Z,11.90
2018-02-22T23:10:36.540Z,9.27
2018-02-22T23:13:05.505Z,9.60
2018-02-22T23:15:37.913Z,8.80
2018-02-22T23:18:06.982Z,10.40
2018-02-22T23:23:30.078Z,10.00
2018-02-22T23:26:00.558Z,9.70
2018-02-22T23:28:28.715Z,8.80
2018-02-22T23:30:56.867Z,9.82
2018-02-22T23:33:25.048Z,10.07
2018-02-22T23:35:53.525Z,10.13
2018-02-22T23:38:21.699Z,10.38
2018-02-22T23:41:05.500Z,9.70
2018-02-22T23:43:34.450Z,9.68
2018-02-22T23:46:02.633Z,8.13
2018-02-22T23:48:30.809Z,9.57
2018-02-22T23:50:58.973Z,9.18
2018-02-22T23:53:27.219Z,8.70
2018-02-22T23:55:55.563Z,10.48
2018-02-22T23:58:25.012Z,8.75
